Nearby METAR Reports

 

KBJC - Broomfield/Jeffc, Colorado, USA
Distance from station: SSW 3mi, 5km
Updated: Sat, 21-Jul-2018 12:45pm MDT
Partly cloudy
Partly cloudy
 Wind from varies
Wind: varies 6 mph , 9 km/h
Temperature: 90°F , 32°C
Dew Point: 46°F , 8°C
Humidity: 22%
Barometer: 30.18 inHg , 1022 hPa
Clouds: Partly cloudy
Visibility: 30 miles , 48 km
Cloud details: Partly cloudy 25000 ft
2018/07/21 18:45 KBJC 211845Z VRB05KT 30SM SCT250 32/08 A3018
KEIK - Erie Muni, Colorado, USA
Distance from station: N 5mi, 9km
Updated: Sat, 21-Jul-2018 12:54pm MDT
Clear
Clear
 Wind from NE
Wind: NE 6 mph , 9 km/h
Temperature: 90°F , 32°C
Dew Point: 46°F , 8°C
Humidity: 22%
Barometer: 30.18 inHg , 1022 hPa
Clouds: Clear
Visibility: 10 miles , 16 km
2018/07/21 18:54 KEIK 211854Z AUTO 04005KT 10SM CLR 32/08 A3018 RMK AO2 T03210080
 
KBDU - Boulder Muni, Colorado, USA
Distance from station: NW 11mi, 17km
Updated: Sat, 21-Jul-2018 12:54pm MDT
Clear
Clear
 Wind from calm
Wind: Calm
Temperature: 88°F , 31°C
Dew Point: 50°F , 10°C
Humidity: 27%
Barometer: 30.14 inHg , 1020.7 hPa
Clouds: Clear
Visibility: 10 miles , 16 km
2018/07/21 18:54 KBDU 211854Z AUTO 00000KT 10SM CLR 31/10 A3014 RMK AO2
KLMO - Longmont/Vbrand, Colorado, USA
Distance from station: NNW 16mi, 27km
Updated: Sat, 21-Jul-2018 12:35pm MDT
Clear
Clear
 Wind from E
Wind: E 7 mph , 11 km/h
Temperature: 91°F , 33°C
Dew Point: 52°F , 11°C
Humidity: 26%
Barometer: 30.15 inHg , 1021 hPa
Clouds: Clear
Visibility: 7 miles , 11 km
2018/07/21 18:35 KLMO 211835Z AUTO 08006KT 7SM CLR 33/11 A3015 RMK AO2 T03340106
 
KBKF - Buckley Angb/Den, Colorado, USA
Distance from station: SE 23mi, 37km
Updated: Sat, 21-Jul-2018 11:58am MDT
Partly cloudy
Partly cloudy
 Wind from NW
Wind: NW 5 mph , 7 km/h
Temperature: 88°F , 31°C
Dew Point: 48°F , 9°C
Humidity: 25%
Barometer: 30.18 inHg , 1022 hPa
Clouds: Partly cloudy
Visibility: 10 miles , 16 km
Cloud details: Few Clouds 10000 ft
Few Clouds 15000 ft
Partly cloudy 22000 ft
2018/07/21 17:58 KBKF 211758Z 31004KT 10SM FEW100 FEW150 SCT220 31/09 A3018 RMK AO2A SLP131 T03110093 10312 20203 57009
KDEN - Denver (dia), Colorado, USA
Distance from station: ESE 23mi, 37km
Updated: Sat, 21-Jul-2018 12:53pm MDT
Partly cloudy
Partly cloudy
 Wind from SSE
Wind: SSE 6 mph , 9 km/h
Temperature: 93°F , 34°C
Dew Point: 48°F , 9°C
Humidity: 21%
Barometer: 30.14 inHg , 1020.7 hPa
Clouds: Partly cloudy
Visibility: 10 miles , 16 km
Cloud details: Few Clouds 10000 ft
Few Clouds 14000 ft
Partly cloudy 22000 ft
2018/07/21 18:53 KDEN 211853Z 15005KT 10SM FEW100 FEW140 SCT220 34/09 A3014 RMK AO2 SLP105 T03390094
 
KAPA - Denver/Arapahoe, Colorado, USA
Distance from station: SSE 28mi, 46km
Updated: Sat, 21-Jul-2018 12:53pm MDT
Partly cloudy
Partly cloudy
 Wind from N
Wind: N 6 mph , 9 km/h
Temperature: 91°F , 33°C
Dew Point: 41°F , 5°C
Humidity: 17%
Barometer: 30.18 inHg , 1022 hPa
Clouds: Partly cloudy
Visibility: 10 miles , 16 km
Cloud details: Few Clouds 10000 ft
Partly cloudy 20000 ft
2018/07/21 18:53 KAPA 211853Z 35005KT 10SM FEW100 SCT200 33/05 A3018 RMK AO2 SLP123 T03280050
KFTG - Denver F. Range, Colorado, USA
Distance from station: ESE 30mi, 48km
Updated: Sat, 21-Jul-2018 11:52am MDT
Partly cloudy
Partly cloudy
 Wind from W
Wind: W 6 mph , 9 km/h
Temperature: 91°F , 33°C
Dew Point: 41°F , 5°C
Humidity: 17%
Barometer: 30.17 inHg , 1021.7 hPa
Clouds: Partly cloudy
Visibility: 10 miles , 16 km
Cloud details: Few Clouds 12000 ft
Partly cloudy 22000 ft
2018/07/21 17:52 KFTG 211752Z 26005KT 10SM FEW120 SCT220 33/05 A3017
 
KFNL - Ft Collins/Lovel, Colorado, USA
Distance from station: N 35mi, 57km
Updated: Sat, 21-Jul-2018 11:56am MDT
Clear
Clear
 Wind from ENE
Wind: ENE 9 mph , 15 km/h
Temperature: 90°F , 32°C
Dew Point: 55°F , 13°C
Humidity: 31%
Barometer: 30.14 inHg , 1020.7 hPa
Clouds: Clear
Visibility: 9 miles , 14 km
2018/07/21 17:56 KFNL 211756Z AUTO 07008KT 9SM CLR 32/13 A3014 RMK AO2 SLP131 T03170128 10322 20194 58010
K0CO - Berthoud Pass, Colorado, USA
Distance from station: WSW 38mi, 61km
Updated: Sat, 21-Jul-2018 12:52pm MDT
Mostly cloudy
Mostly cloudy
 Wind from NNE
Wind: NNE 6 mph , 9 km/h
Temperature: 59°F , 15°C
Dew Point: 43°F , 6°C
Humidity: 55%
Barometer: 30.78 inHg , 1042.3 hPa
Clouds: Mostly cloudy
Visibility: 10 miles , 16 km
Cloud details: Mostly cloudy 4700 ft
Mostly cloudy 6000 ft
Mostly cloudy 7000 ft
2018/07/21 18:52 K0CO 211852Z AUTO 03005KT 10SM BKN047 BKN060 BKN070 15/06 A3078 RMK AO2 LTG DSNT SW
 
KGXY - Greeley/Weld, Colorado, USA
Distance from station: NE 41mi, 66km
Updated: Sat, 21-Jul-2018 11:56am MDT
Clear
Clear
 Wind from ESE
Wind: ESE 8 mph , 13 km/h
Temperature: 88°F , 31°C
Heat Index: 90°F , 32°C
Dew Point: 64°F , 18°C
Humidity: 46%
Barometer: 30.12 inHg , 1020 hPa
Clouds: Clear
Visibility: 10 miles , 16 km
2018/07/21 17:56 KGXY 211756Z AUTO 11007KT 070V140 10SM CLR 31/18 A3012 RMK AO2 SLP143 T03110183 10311 20189 58009